sensor_id;sensor_type;location;lat;lon;timestamp;temperature;humidity
7240;DHT22;3661;53.288;10.458;2022-11-09T00:02:29;12.70;99.90
7240;DHT22;3661;53.288;10.458;2022-11-09T00:05:01;12.70;99.90
7240;DHT22;3661;53.288;10.458;2022-11-09T00:07:34;12.60;99.90
7240;DHT22;3661;53.288;10.458;2022-11-09T00:10:09;12.60;99.90
7240;DHT22;3661;53.288;10.458;2022-11-09T00:12:41;12.60;99.90
7240;DHT22;3661;53.288;10.458;2022-11-09T00:15:15;12.60;99.90
7240;DHT22;3661;53.288;10.458;2022-11-09T00:17:47;12.60;99.90
7240;DHT22;3661;53.288;10.458;2022-11-09T00:20:20;12.60;99.90
7240;DHT22;3661;53.288;10.458;2022-11-09T00:22:53;12.50;99.90
7240;DHT22;3661;53.288;10.458;2022-11-09T00:25:25;12.50;99.90
7240;DHT22;3661;53.288;10.458;2022-11-09T00:27:57;12.50;99.90
7240;DHT22;3661;53.288;10.458;2022-11-09T00:30:30;12.50;99.90
7240;DHT22;3661;53.288;10.458;2022-11-09T00:33:04;12.50;99.90
7240;DHT22;3661;53.288;10.458;2022-11-09T00:35:37;12.50;99.90
7240;DHT22;3661;53.288;10.458;2022-11-09T00:38:09;12.60;99.90
7240;DHT22;3661;53.288;10.458;2022-11-09T00:40:41;12.60;99.90
7240;DHT22;3661;53.288;10.458;2022-11-09T00:43:13;12.60;99.90
7240;DHT22;3661;53.288;10.458;2022-11-09T00:45:48;12.60;99.90
7240;DHT22;3661;53.288;10.458;2022-11-09T00:48:20;12.60;99.90
7240;DHT22;3661;53.288;10.458;2022-11-09T00:50:55;12.60;99.90
7240;DHT22;3661;53.288;10.458;2022-11-09T00:53:31;12.60;99.90
7240;DHT22;3661;53.288;10.458;2022-11-09T00:56:05;12.60;99.90
7240;DHT22;3661;53.288;10.458;2022-11-09T00:58:38;12.60;99.90
7240;DHT22;3661;53.288;10.458;2022-11-09T01:01:16;12.60;99.90
7240;DHT22;3661;53.288;10.458;2022-11-09T01:03:49;12.60;99.90
7240;DHT22;3661;53.288;10.458;2022-11-09T01:06:23;12.60;99.90
7240;DHT22;3661;53.288;10.458;2022-11-09T01:08:57;12.60;99.90
7240;DHT22;3661;53.288;10.458;2022-11-09T01:11:31;12.60;99.90
7240;DHT22;3661;53.288;10.458;2022-11-09T01:14:05;12.60;99.90
7240;DHT22;3661;53.288;10.458;2022-11-09T01:16:39;12.60;99.90
7240;DHT22;3661;53.288;10.458;2022-11-09T01:19:11;12.60;99.90
7240;DHT22;3661;53.288;10.458;2022-11-09T01:21:46;12.60;99.90
7240;DHT22;3661;53.288;10.458;2022-11-09T01:24:18;12.60;99.90
7240;DHT22;3661;53.288;10.458;2022-11-09T01:26:50;12.60;99.90
7240;DHT22;3661;53.288;10.458;2022-11-09T01:29:22;12.50;99.90
7240;DHT22;3661;53.288;10.458;2022-11-09T01:31:59;12.50;99.90
7240;DHT22;3661;53.288;10.458;2022-11-09T01:34:34;12.50;99.90
7240;DHT22;3661;53.288;10.458;2022-11-09T01:37:06;12.50;99.90
7240;DHT22;3661;53.288;10.458;2022-11-09T01:39:38;12.50;99.90
7240;DHT22;3661;53.288;10.458;2022-11-09T01:42:10;12.50;99.90
7240;DHT22;3661;53.288;10.458;2022-11-09T01:44:42;12.50;99.90
7240;DHT22;3661;53.288;10.458;2022-11-09T01:47:21;12.50;99.90
7240;DHT22;3661;53.288;10.458;2022-11-09T01:49:58;12.50;99.90
7240;DHT22;3661;53.288;10.458;2022-11-09T01:52:35;12.50;99.90
7240;DHT22;3661;53.288;10.458;2022-11-09T01:55:11;12.50;99.90
7240;DHT22;3661;53.288;10.458;2022-11-09T01:57:46;12.50;99.90
7240;DHT22;3661;53.288;10.458;2022-11-09T02:00:21;12.50;99.90
7240;DHT22;3661;53.288;10.458;2022-11-09T02:02:56;12.50;99.90
7240;DHT22;3661;53.288;10.458;2022-11-09T02:05:31;12.50;99.90
7240;DHT22;3661;53.288;10.458;2022-11-09T02:08:06;12.40;99.90
7240;DHT22;3661;53.288;10.458;2022-11-09T02:10:44;12.40;99.90
7240;DHT22;3661;53.288;10.458;2022-11-09T02:13:19;12.40;99.90
7240;DHT22;3661;53.288;10.458;2022-11-09T02:15:53;12.40;99.90
7240;DHT22;3661;53.288;10.458;2022-11-09T02:18:27;12.40;99.90
7240;DHT22;3661;53.288;10.458;2022-11-09T02:21:04;12.40;99.90
7240;DHT22;3661;53.288;10.458;2022-11-09T02:23:36;12.40;99.90
7240;DHT22;3661;53.288;10.458;2022-11-09T02:26:09;12.40;99.90
7240;DHT22;3661;53.288;10.458;2022-11-09T02:28:43;12.40;99.90
7240;DHT22;3661;53.288;10.458;2022-11-09T02:31:17;12.40;99.90
7240;DHT22;3661;53.288;10.458;2022-11-09T02:33:53;12.50;99.90
7240;DHT22;3661;53.288;10.458;2022-11-09T02:36:27;12.50;99.90
7240;DHT22;3661;53.288;10.458;2022-11-09T02:39:02;12.50;99.90
7240;DHT22;3661;53.288;10.458;2022-11-09T02:41:37;12.50;99.90
7240;DHT22;3661;53.288;10.458;2022-11-09T02:44:12;12.50;99.90
7240;DHT22;3661;53.288;10.458;2022-11-09T02:46:46;12.50;99.90
7240;DHT22;3661;53.288;10.458;2022-11-09T02:49:19;12.60;99.90
7240;DHT22;3661;53.288;10.458;2022-11-09T02:51:53;12.60;99.90
7240;DHT22;3661;53.288;10.458;2022-11-09T02:54:25;12.60;99.90
7240;DHT22;3661;53.288;10.458;2022-11-09T02:56:57;12.70;99.90
7240;DHT22;3661;53.288;10.458;2022-11-09T02:59:29;12.70;99.90
7240;DHT22;3661;53.288;10.458;2022-11-09T03:02:01;12.70;99.90
7240;DHT22;3661;53.288;10.458;2022-11-09T03:04:33;12.70;99.90
7240;DHT22;3661;53.288;10.458;2022-11-09T03:07:06;12.80;99.90
7240;DHT22;3661;53.288;10.458;2022-11-09T03:09:38;12.80;99.90
7240;DHT22;3661;53.288;10.458;2022-11-09T03:12:11;12.80;99.90
7240;DHT22;3661;53.288;10.458;2022-11-09T03:15:04;12.80;99.90
7240;DHT22;3661;53.288;10.458;2022-11-09T03:17:37;12.80;99.90
7240;DHT22;3661;53.288;10.458;2022-11-09T03:20:09;12.80;99.90
7240;DHT22;3661;53.288;10.458;2022-11-09T03:22:43;12.90;99.90
7240;DHT22;3661;53.288;10.458;2022-11-09T03:25:15;12.90;99.90
7240;DHT22;3661;53.288;10.458;2022-11-09T03:27:48;12.90;99.90
7240;DHT22;3661;53.288;10.458;2022-11-09T03:30:21;12.90;99.90
7240;DHT22;3661;53.288;10.458;2022-11-09T03:32:57;12.90;99.90
7240;DHT22;3661;53.288;10.458;2022-11-09T03:35:32;12.90;99.90
7240;DHT22;3661;53.288;10.458;2022-11-09T03:38:05;12.90;99.90
7240;DHT22;3661;53.288;10.458;2022-11-09T03:40:39;12.90;99.90
7240;DHT22;3661;53.288;10.458;2022-11-09T03:43:12;12.90;99.90
7240;DHT22;3661;53.288;10.458;2022-11-09T03:45:45;12.90;99.90
7240;DHT22;3661;53.288;10.458;2022-11-09T03:48:18;13.00;99.90
7240;DHT22;3661;53.288;10.458;2022-11-09T03:50:50;13.00;99.90
7240;DHT22;3661;53.288;10.458;2022-11-09T03:53:23;12.90;99.90
7240;DHT22;3661;53.288;10.458;2022-11-09T03:55:56;13.00;99.90
7240;DHT22;3661;53.288;10.458;2022-11-09T03:58:29;13.00;99.90
7240;DHT22;3661;53.288;10.458;2022-11-09T04:01:01;13.00;99.90
7240;DHT22;3661;53.288;10.458;2022-11-09T04:03:33;13.00;99.90
7240;DHT22;3661;53.288;10.458;2022-11-09T04:06:05;13.00;99.90
7240;DHT22;3661;53.288;10.458;2022-11-09T04:08:42;13.00;99.90
7240;DHT22;3661;53.288;10.458;2022-11-09T04:11:14;13.00;99.90
7240;DHT22;3661;53.288;10.458;2022-11-09T04:13:47;13.00;99.90
7240;DHT22;3661;53.288;10.458;2022-11-09T04:16:19;13.00;99.90
7240;DHT22;3661;53.288;10.458;2022-11-09T04:18:51;13.00;99.90
7240;DHT22;3661;53.288;10.458;2022-11-09T04:21:23;13.00;99.90
7240;DHT22;3661;53.288;10.458;2022-11-09T04:23:56;13.00;99.90
7240;DHT22;3661;53.288;10.458;2022-11-09T04:26:31;13.00;99.90
7240;DHT22;3661;53.288;10.458;2022-11-09T04:29:04;13.00;99.90
7240;DHT22;3661;53.288;10.458;2022-11-09T04:31:36;13.00;99.90
7240;DHT22;3661;53.288;10.458;2022-11-09T04:34:08;13.00;99.90
7240;DHT22;3661;53.288;10.458;2022-11-09T04:36:40;13.00;99.90
7240;DHT22;3661;53.288;10.458;2022-11-09T04:39:14;13.00;99.90
7240;DHT22;3661;53.288;10.458;2022-11-09T04:41:46;13.00;99.90
7240;DHT22;3661;53.288;10.458;2022-11-09T04:44:18;13.00;99.90
7240;DHT22;3661;53.288;10.458;2022-11-09T04:46:50;13.00;99.90
7240;DHT22;3661;53.288;10.458;2022-11-09T04:49:23;13.00;99.90
7240;DHT22;3661;53.288;10.458;2022-11-09T04:51:57;13.00;99.90
7240;DHT22;3661;53.288;10.458;2022-11-09T04:54:32;12.90;99.90
7240;DHT22;3661;53.288;10.458;2022-11-09T04:57:04;12.90;99.90
7240;DHT22;3661;53.288;10.458;2022-11-09T04:59:37;12.90;99.90
7240;DHT22;3661;53.288;10.458;2022-11-09T05:02:09;12.90;99.90
7240;DHT22;3661;53.288;10.458;2022-11-09T05:04:41;12.90;99.90
7240;DHT22;3661;53.288;10.458;2022-11-09T05:07:13;12.90;99.90
7240;DHT22;3661;53.288;10.458;2022-11-09T05:09:48;12.80;99.90
7240;DHT22;3661;53.288;10.458;2022-11-09T05:12:20;12.90;99.90
7240;DHT22;3661;53.288;10.458;2022-11-09T05:15:01;12.80;99.90
7240;DHT22;3661;53.288;10.458;2022-11-09T05:17:36;12.80;99.90
7240;DHT22;3661;53.288;10.458;2022-11-09T05:20:09;12.80;99.90
7240;DHT22;3661;53.288;10.458;2022-11-09T05:22:44;12.80;99.90
7240;DHT22;3661;53.288;10.458;2022-11-09T05:25:35;12.80;99.90
7240;DHT22;3661;53.288;10.458;2022-11-09T05:28:07;12.80;99.90
7240;DHT22;3661;53.288;10.458;2022-11-09T05:30:41;12.80;99.90
7240;DHT22;3661;53.288;10.458;2022-11-09T05:33:13;12.80;99.90
7240;DHT22;3661;53.288;10.458;2022-11-09T05:35:46;12.80;99.90
7240;DHT22;3661;53.288;10.458;2022-11-09T05:38:18;12.80;99.90
7240;DHT22;3661;53.288;10.458;2022-11-09T05:40:53;12.70;99.90
7240;DHT22;3661;53.288;10.458;2022-11-09T05:43:26;12.70;99.90
7240;DHT22;3661;53.288;10.458;2022-11-09T05:45:59;12.70;99.90
7240;DHT22;3661;53.288;10.458;2022-11-09T05:48:31;12.70;99.90
7240;DHT22;3661;53.288;10.458;2022-11-09T05:51:05;12.80;99.90
7240;DHT22;3661;53.288;10.458;2022-11-09T05:53:40;12.70;99.90
7240;DHT22;3661;53.288;10.458;2022-11-09T05:56:14;12.70;99.90
7240;DHT22;3661;53.288;10.458;2022-11-09T05:58:48;12.70;99.90
7240;DHT22;3661;53.288;10.458;2022-11-09T06:01:20;12.70;99.90
7240;DHT22;3661;53.288;10.458;2022-11-09T06:03:53;12.70;99.90
7240;DHT22;3661;53.288;10.458;2022-11-09T06:06:25;12.70;99.90
7240;DHT22;3661;53.288;10.458;2022-11-09T06:08:57;12.70;99.90
7240;DHT22;3661;53.288;10.458;2022-11-09T06:11:31;12.70;99.90
7240;DHT22;3661;53.288;10.458;2022-11-09T06:14:07;12.70;99.90
7240;DHT22;3661;53.288;10.458;2022-11-09T06:16:39;12.70;99.90
7240;DHT22;3661;53.288;10.458;2022-11-09T06:19:11;12.70;99.90
7240;DHT22;3661;53.288;10.458;2022-11-09T06:21:43;12.70;99.90
7240;DHT22;3661;53.288;10.458;2022-11-09T06:24:15;12.70;99.90
7240;DHT22;3661;53.288;10.458;2022-11-09T06:26:49;12.70;99.90
7240;DHT22;3661;53.288;10.458;2022-11-09T06:29:21;12.60;99.90
7240;DHT22;3661;53.288;10.458;2022-11-09T06:31:53;12.60;99.90
7240;DHT22;3661;53.288;10.458;2022-11-09T06:34:27;12.60;99.90
7240;DHT22;3661;53.288;10.458;2022-11-09T06:37:01;12.60;99.90
7240;DHT22;3661;53.288;10.458;2022-11-09T06:39:33;12.60;99.90
7240;DHT22;3661;53.288;10.458;2022-11-09T06:42:07;12.60;99.90
7240;DHT22;3661;53.288;10.458;2022-11-09T06:44:39;12.50;99.90
7240;DHT22;3661;53.288;10.458;2022-11-09T06:47:11;12.50;99.90
7240;DHT22;3661;53.288;10.458;2022-11-09T06:49:45;12.50;99.90
7240;DHT22;3661;53.288;10.458;2022-11-09T06:52:17;12.50;99.90
7240;DHT22;3661;53.288;10.458;2022-11-09T06:54:49;12.50;99.90
7240;DHT22;3661;53.288;10.458;2022-11-09T06:57:23;12.50;99.90
7240;DHT22;3661;53.288;10.458;2022-11-09T06:59:55;12.50;99.90
7240;DHT22;3661;53.288;10.458;2022-11-09T07:02:31;12.50;99.90
7240;DHT22;3661;53.288;10.458;2022-11-09T07:05:13;12.50;99.90
7240;DHT22;3661;53.288;10.458;2022-11-09T07:07:45;12.60;99.90
7240;DHT22;3661;53.288;10.458;2022-11-09T07:10:19;12.60;99.90
7240;DHT22;3661;53.288;10.458;2022-11-09T07:12:55;12.60;99.90
7240;DHT22;3661;53.288;10.458;2022-11-09T07:15:28;12.60;99.90
7240;DHT22;3661;53.288;10.458;2022-11-09T07:18:01;12.60;99.90
7240;DHT22;3661;53.288;10.458;2022-11-09T07:20:33;12.60;99.90
7240;DHT22;3661;53.288;10.458;2022-11-09T07:23:05;12.70;99.90
7240;DHT22;3661;53.288;10.458;2022-11-09T07:25:38;12.70;99.90
7240;DHT22;3661;53.288;10.458;2022-11-09T07:28:12;12.70;99.90
7240;DHT22;3661;53.288;10.458;2022-11-09T07:30:44;12.70;99.90
7240;DHT22;3661;53.288;10.458;2022-11-09T07:33:20;12.70;99.90
7240;DHT22;3661;53.288;10.458;2022-11-09T07:35:56;12.70;99.90
7240;DHT22;3661;53.288;10.458;2022-11-09T07:38:28;12.80;99.90
7240;DHT22;3661;53.288;10.458;2022-11-09T07:41:01;12.80;99.90
7240;DHT22;3661;53.288;10.458;2022-11-09T07:43:34;12.80;99.90
7240;DHT22;3661;53.288;10.458;2022-11-09T07:46:06;12.80;99.90
7240;DHT22;3661;53.288;10.458;2022-11-09T07:48:38;12.80;99.90
7240;DHT22;3661;53.288;10.458;2022-11-09T07:51:12;12.90;99.90
7240;DHT22;3661;53.288;10.458;2022-11-09T07:53:44;12.90;99.90
7240;DHT22;3661;53.288;10.458;2022-11-09T07:56:16;12.90;99.90
7240;DHT22;3661;53.288;10.458;2022-11-09T07:58:51;12.90;99.90
7240;DHT22;3661;53.288;10.458;2022-11-09T08:01:23;12.90;99.90
7240;DHT22;3661;53.288;10.458;2022-11-09T08:03:55;12.90;99.90
7240;DHT22;3661;53.288;10.458;2022-11-09T08:06:28;13.00;99.90
7240;DHT22;3661;53.288;10.458;2022-11-09T08:09:00;13.00;99.90
7240;DHT22;3661;53.288;10.458;2022-11-09T08:11:32;13.00;99.90
7240;DHT22;3661;53.288;10.458;2022-11-09T08:14:05;13.00;99.90
7240;DHT22;3661;53.288;10.458;2022-11-09T08:16:37;13.00;99.90
7240;DHT22;3661;53.288;10.458;2022-11-09T08:19:09;13.00;99.90
7240;DHT22;3661;53.288;10.458;2022-11-09T08:21:41;13.10;99.90
7240;DHT22;3661;53.288;10.458;2022-11-09T08:24:13;13.10;99.90
7240;DHT22;3661;53.288;10.458;2022-11-09T08:26:45;13.10;99.90
7240;DHT22;3661;53.288;10.458;2022-11-09T08:29:19;13.10;99.90
7240;DHT22;3661;53.288;10.458;2022-11-09T08:31:51;13.20;99.90
7240;DHT22;3661;53.288;10.458;2022-11-09T08:34:23;13.20;99.90
7240;DHT22;3661;53.288;10.458;2022-11-09T08:36:58;13.30;99.90
7240;DHT22;3661;53.288;10.458;2022-11-09T08:39:30;13.30;99.90
7240;DHT22;3661;53.288;10.458;2022-11-09T08:42:02;13.30;99.90
7240;DHT22;3661;53.288;10.458;2022-11-09T08:44:36;13.40;99.90
7240;DHT22;3661;53.288;10.458;2022-11-09T08:47:08;13.40;99.90
7240;DHT22;3661;53.288;10.458;2022-11-09T08:49:40;13.40;99.90
7240;DHT22;3661;53.288;10.458;2022-11-09T08:52:14;13.40;99.90
7240;DHT22;3661;53.288;10.458;2022-11-09T08:54:49;13.50;99.90
7240;DHT22;3661;53.288;10.458;2022-11-09T08:57:22;13.60;99.90
7240;DHT22;3661;53.288;10.458;2022-11-09T08:59:55;13.60;99.90
7240;DHT22;3661;53.288;10.458;2022-11-09T09:02:27;13.60;99.90
7240;DHT22;3661;53.288;10.458;2022-11-09T09:05:00;13.70;99.90
7240;DHT22;3661;53.288;10.458;2022-11-09T09:07:32;13.70;99.90
7240;DHT22;3661;53.288;10.458;2022-11-09T09:10:04;13.70;99.90
7240;DHT22;3661;53.288;10.458;2022-11-09T09:12:36;13.70;99.90
7240;DHT22;3661;53.288;10.458;2022-11-09T09:15:10;13.80;99.90
7240;DHT22;3661;53.288;10.458;2022-11-09T09:17:42;13.80;99.90
7240;DHT22;3661;53.288;10.458;2022-11-09T09:20:14;13.80;99.90
7240;DHT22;3661;53.288;10.458;2022-11-09T09:22:50;13.80;99.90
7240;DHT22;3661;53.288;10.458;2022-11-09T09:25:22;13.80;99.90
7240;DHT22;3661;53.288;10.458;2022-11-09T09:27:54;13.80;99.90
7240;DHT22;3661;53.288;10.458;2022-11-09T09:30:28;13.80;99.90
7240;DHT22;3661;53.288;10.458;2022-11-09T09:33:00;13.80;99.90
7240;DHT22;3661;53.288;10.458;2022-11-09T09:35:32;13.80;99.90
7240;DHT22;3661;53.288;10.458;2022-11-09T09:38:05;13.80;99.90
7240;DHT22;3661;53.288;10.458;2022-11-09T09:40:48;13.70;99.90
7240;DHT22;3661;53.288;10.458;2022-11-09T09:43:27;13.70;99.90
7240;DHT22;3661;53.288;10.458;2022-11-09T09:46:04;13.70;99.90
7240;DHT22;3661;53.288;10.458;2022-11-09T09:48:39;13.80;99.90
7240;DHT22;3661;53.288;10.458;2022-11-09T09:51:18;13.80;99.90
7240;DHT22;3661;53.288;10.458;2022-11-09T09:53:56;13.80;99.90
7240;DHT22;3661;53.288;10.458;2022-11-09T09:56:33;13.80;99.90
7240;DHT22;3661;53.288;10.458;2022-11-09T09:59:11;13.80;99.90
7240;DHT22;3661;53.288;10.458;2022-11-09T10:01:48;13.90;99.90
7240;DHT22;3661;53.288;10.458;2022-11-09T10:04:22;13.90;99.90
7240;DHT22;3661;53.288;10.458;2022-11-09T10:07:02;14.00;99.90
7240;DHT22;3661;53.288;10.458;2022-11-09T10:09:47;14.10;99.90
7240;DHT22;3661;53.288;10.458;2022-11-09T10:12:25;14.10;99.90
7240;DHT22;3661;53.288;10.458;2022-11-09T10:15:10;14.20;99.90
7240;DHT22;3661;53.288;10.458;2022-11-09T10:18:00;14.30;99.90
7240;DHT22;3661;53.288;10.458;2022-11-09T10:20:46;14.40;99.90
7240;DHT22;3661;53.288;10.458;2022-11-09T10:23:34;14.50;99.90
7240;DHT22;3661;53.288;10.458;2022-11-09T10:26:16;14.60;99.90
7240;DHT22;3661;53.288;10.458;2022-11-09T10:28:53;14.70;99.90
7240;DHT22;3661;53.288;10.458;2022-11-09T10:31:31;14.70;99.90
7240;DHT22;3661;53.288;10.458;2022-11-09T10:34:16;14.80;99.90
7240;DHT22;3661;53.288;10.458;2022-11-09T10:36:55;14.80;99.90
7240;DHT22;3661;53.288;10.458;2022-11-09T10:39:39;14.90;99.90
7240;DHT22;3661;53.288;10.458;2022-11-09T10:42:13;14.90;99.90
7240;DHT22;3661;53.288;10.458;2022-11-09T10:44:46;14.90;99.90
7240;DHT22;3661;53.288;10.458;2022-11-09T10:47:19;14.90;99.90
7240;DHT22;3661;53.288;10.458;2022-11-09T10:50:06;14.90;99.90
7240;DHT22;3661;53.288;10.458;2022-11-09T10:52:39;14.80;99.90
7240;DHT22;3661;53.288;10.458;2022-11-09T10:55:22;14.90;99.90
7240;DHT22;3661;53.288;10.458;2022-11-09T10:57:57;14.90;99.90
7240;DHT22;3661;53.288;10.458;2022-11-09T11:00:30;14.90;99.90
7240;DHT22;3661;53.288;10.458;2022-11-09T11:03:13;14.90;99.90
7240;DHT22;3661;53.288;10.458;2022-11-09T11:05:56;14.90;99.90
7240;DHT22;3661;53.288;10.458;2022-11-09T11:08:35;15.00;99.90
7240;DHT22;3661;53.288;10.458;2022-11-09T11:11:19;15.10;99.90
7240;DHT22;3661;53.288;10.458;2022-11-09T11:14:08;15.10;99.90
7240;DHT22;3661;53.288;10.458;2022-11-09T11:16:41;15.20;99.90
7240;DHT22;3661;53.288;10.458;2022-11-09T11:19:33;15.20;99.90
7240;DHT22;3661;53.288;10.458;2022-11-09T11:22:18;15.30;99.90
7240;DHT22;3661;53.288;10.458;2022-11-09T11:24:54;15.30;99.90
7240;DHT22;3661;53.288;10.458;2022-11-09T11:27:31;15.40;99.90
7240;DHT22;3661;53.288;10.458;2022-11-09T11:30:10;15.40;99.90
7240;DHT22;3661;53.288;10.458;2022-11-09T11:32:42;15.40;99.90
7240;DHT22;3661;53.288;10.458;2022-11-09T11:35:16;15.50;99.90
7240;DHT22;3661;53.288;10.458;2022-11-09T11:37:57;15.50;99.90
7240;DHT22;3661;53.288;10.458;2022-11-09T11:40:39;15.60;99.90
7240;DHT22;3661;53.288;10.458;2022-11-09T11:43:26;15.70;99.90
7240;DHT22;3661;53.288;10.458;2022-11-09T11:46:07;15.80;99.90
7240;DHT22;3661;53.288;10.458;2022-11-09T11:49:02;15.80;99.90
7240;DHT22;3661;53.288;10.458;2022-11-09T11:51:44;15.90;99.90
7240;DHT22;3661;53.288;10.458;2022-11-09T11:54:25;15.90;99.90
7240;DHT22;3661;53.288;10.458;2022-11-09T11:57:07;15.90;99.90
7240;DHT22;3661;53.288;10.458;2022-11-09T12:00:03;16.00;99.90
7240;DHT22;3661;53.288;10.458;2022-11-09T12:09:10;15.90;99.90
7240;DHT22;3661;53.288;10.458;2022-11-09T12:11:58;15.90;99.90
7240;DHT22;3661;53.288;10.458;2022-11-09T12:14:44;15.90;99.90
7240;DHT22;3661;53.288;10.458;2022-11-09T12:17:24;15.90;99.90
7240;DHT22;3661;53.288;10.458;2022-11-09T12:20:14;16.00;99.90
7240;DHT22;3661;53.288;10.458;2022-11-09T12:22:58;16.10;99.90
7240;DHT22;3661;53.288;10.458;2022-11-09T12:25:39;16.10;99.90
7240;DHT22;3661;53.288;10.458;2022-11-09T12:28:43;16.20;99.90
7240;DHT22;3661;53.288;10.458;2022-11-09T12:31:25;16.20;99.90
7240;DHT22;3661;53.288;10.458;2022-11-09T12:34:04;16.20;99.90
7240;DHT22;3661;53.288;10.458;2022-11-09T12:36:43;16.20;99.90
7240;DHT22;3661;53.288;10.458;2022-11-09T12:39:20;16.20;99.90
7240;DHT22;3661;53.288;10.458;2022-11-09T12:41:57;16.30;99.90
7240;DHT22;3661;53.288;10.458;2022-11-09T12:44:34;16.30;99.90
7240;DHT22;3661;53.288;10.458;2022-11-09T12:47:11;16.30;99.90
7240;DHT22;3661;53.288;10.458;2022-11-09T12:49:45;16.30;99.90
7240;DHT22;3661;53.288;10.458;2022-11-09T12:52:22;16.30;99.90
7240;DHT22;3661;53.288;10.458;2022-11-09T12:54:59;16.30;99.90
7240;DHT22;3661;53.288;10.458;2022-11-09T12:57:32;16.40;99.90
7240;DHT22;3661;53.288;10.458;2022-11-09T13:00:07;16.30;99.90
7240;DHT22;3661;53.288;10.458;2022-11-09T13:02:52;16.30;99.90
7240;DHT22;3661;53.288;10.458;2022-11-09T13:05:30;16.30;99.90
7240;DHT22;3661;53.288;10.458;2022-11-09T13:08:04;16.30;99.90
7240;DHT22;3661;53.288;10.458;2022-11-09T13:10:38;16.30;99.90
7240;DHT22;3661;53.288;10.458;2022-11-09T13:13:22;16.30;99.90
7240;DHT22;3661;53.288;10.458;2022-11-09T13:16:09;16.30;99.90
7240;DHT22;3661;53.288;10.458;2022-11-09T13:18:48;16.20;99.90
7240;DHT22;3661;53.288;10.458;2022-11-09T13:21:39;16.20;99.90
7240;DHT22;3661;53.288;10.458;2022-11-09T13:27:37;16.20;99.90
7240;DHT22;3661;53.288;10.458;2022-11-09T13:33:24;16.30;99.90
7240;DHT22;3661;53.288;10.458;2022-11-09T13:41:41;16.20;99.90
7240;DHT22;3661;53.288;10.458;2022-11-09T13:44:22;16.20;99.90
7240;DHT22;3661;53.288;10.458;2022-11-09T13:46:55;16.20;99.90
7240;DHT22;3661;53.288;10.458;2022-11-09T13:49:46;16.20;99.90
7240;DHT22;3661;53.288;10.458;2022-11-09T13:52:48;16.20;99.90
7240;DHT22;3661;53.288;10.458;2022-11-09T13:55:30;16.20;99.90
7240;DHT22;3661;53.288;10.458;2022-11-09T13:58:09;16.20;99.90
7240;DHT22;3661;53.288;10.458;2022-11-09T14:00:45;16.20;99.90
7240;DHT22;3661;53.288;10.458;2022-11-09T14:03:20;16.20;99.90
7240;DHT22;3661;53.288;10.458;2022-11-09T14:05:56;16.10;99.90
7240;DHT22;3661;53.288;10.458;2022-11-09T14:08:33;16.10;99.90
7240;DHT22;3661;53.288;10.458;2022-11-09T14:11:49;16.10;99.90
7240;DHT22;3661;53.288;10.458;2022-11-09T14:14:47;16.10;99.90
7240;DHT22;3661;53.288;10.458;2022-11-09T14:17:28;16.00;99.90
7240;DHT22;3661;53.288;10.458;2022-11-09T14:20:10;16.00;99.90
7240;DHT22;3661;53.288;10.458;2022-11-09T14:22:48;15.90;99.90
7240;DHT22;3661;53.288;10.458;2022-11-09T14:25:23;15.90;99.90
7240;DHT22;3661;53.288;10.458;2022-11-09T14:27:55;15.80;99.90
7240;DHT22;3661;53.288;10.458;2022-11-09T14:30:29;15.70;99.90
7240;DHT22;3661;53.288;10.458;2022-11-09T14:33:01;15.70;99.90
7240;DHT22;3661;53.288;10.458;2022-11-09T14:35:34;15.60;99.90
7240;DHT22;3661;53.288;10.458;2022-11-09T14:38:24;15.60;99.90
7240;DHT22;3661;53.288;10.458;2022-11-09T14:40:57;15.50;99.90
7240;DHT22;3661;53.288;10.458;2022-11-09T14:43:34;15.40;99.90
7240;DHT22;3661;53.288;10.458;2022-11-09T14:46:16;15.30;99.90
7240;DHT22;3661;53.288;10.458;2022-11-09T14:48:49;15.30;99.90
7240;DHT22;3661;53.288;10.458;2022-11-09T14:51:27;15.20;99.90
7240;DHT22;3661;53.288;10.458;2022-11-09T14:54:05;15.20;99.90
7240;DHT22;3661;53.288;10.458;2022-11-09T14:56:39;15.10;99.90
7240;DHT22;3661;53.288;10.458;2022-11-09T14:59:14;15.10;99.90
7240;DHT22;3661;53.288;10.458;2022-11-09T15:01:58;15.00;99.90
7240;DHT22;3661;53.288;10.458;2022-11-09T15:04:53;14.90;99.90
7240;DHT22;3661;53.288;10.458;2022-11-09T15:07:27;14.90;99.90
7240;DHT22;3661;53.288;10.458;2022-11-09T15:10:04;14.80;99.90
7240;DHT22;3661;53.288;10.458;2022-11-09T15:12:37;14.70;99.90
7240;DHT22;3661;53.288;10.458;2022-11-09T15:15:18;14.70;99.90
7240;DHT22;3661;53.288;10.458;2022-11-09T15:17:51;14.70;99.90
7240;DHT22;3661;53.288;10.458;2022-11-09T15:20:27;14.60;99.90
7240;DHT22;3661;53.288;10.458;2022-11-09T15:23:02;14.60;99.90
7240;DHT22;3661;53.288;10.458;2022-11-09T15:25:52;14.50;99.90
7240;DHT22;3661;53.288;10.458;2022-11-09T15:28:26;14.40;99.90
7240;DHT22;3661;53.288;10.458;2022-11-09T15:31:10;14.40;99.90
7240;DHT22;3661;53.288;10.458;2022-11-09T15:33:48;14.40;99.90
7240;DHT22;3661;53.288;10.458;2022-11-09T15:36:26;14.30;99.90
7240;DHT22;3661;53.288;10.458;2022-11-09T15:39:04;14.30;99.90
7240;DHT22;3661;53.288;10.458;2022-11-09T15:41:40;14.20;99.90
7240;DHT22;3661;53.288;10.458;2022-11-09T15:44:12;14.20;99.90
7240;DHT22;3661;53.288;10.458;2022-11-09T15:46:46;14.20;99.90
7240;DHT22;3661;53.288;10.458;2022-11-09T15:49:22;14.10;99.90
7240;DHT22;3661;53.288;10.458;2022-11-09T15:51:54;14.10;99.90
7240;DHT22;3661;53.288;10.458;2022-11-09T15:54:27;14.00;99.90
7240;DHT22;3661;53.288;10.458;2022-11-09T15:57:00;14.00;99.90
7240;DHT22;3661;53.288;10.458;2022-11-09T15:59:32;13.90;99.90
7240;DHT22;3661;53.288;10.458;2022-11-09T16:02:05;13.90;99.90
7240;DHT22;3661;53.288;10.458;2022-11-09T16:04:37;13.90;99.90
7240;DHT22;3661;53.288;10.458;2022-11-09T16:07:12;13.80;99.90
7240;DHT22;3661;53.288;10.458;2022-11-09T16:09:47;13.80;99.90
7240;DHT22;3661;53.288;10.458;2022-11-09T16:12:20;13.70;99.90
7240;DHT22;3661;53.288;10.458;2022-11-09T16:14:52;13.70;99.90
7240;DHT22;3661;53.288;10.458;2022-11-09T16:17:24;13.60;99.90
7240;DHT22;3661;53.288;10.458;2022-11-09T16:19:56;13.50;99.90
7240;DHT22;3661;53.288;10.458;2022-11-09T16:22:29;13.50;99.90
7240;DHT22;3661;53.288;10.458;2022-11-09T16:25:02;13.40;99.90
7240;DHT22;3661;53.288;10.458;2022-11-09T16:27:36;13.40;99.90
7240;DHT22;3661;53.288;10.458;2022-11-09T16:30:10;13.30;99.90
7240;DHT22;3661;53.288;10.458;2022-11-09T16:32:42;13.30;99.90
7240;DHT22;3661;53.288;10.458;2022-11-09T16:35:14;13.20;99.90
7240;DHT22;3661;53.288;10.458;2022-11-09T16:37:46;13.20;99.90
7240;DHT22;3661;53.288;10.458;2022-11-09T16:40:21;13.10;99.90
7240;DHT22;3661;53.288;10.458;2022-11-09T16:42:55;13.10;99.90
7240;DHT22;3661;53.288;10.458;2022-11-09T16:45:27;13.00;99.90
7240;DHT22;3661;53.288;10.458;2022-11-09T16:48:02;13.00;99.90
7240;DHT22;3661;53.288;10.458;2022-11-09T16:50:34;13.00;99.90
7240;DHT22;3661;53.288;10.458;2022-11-09T16:53:07;12.90;99.90
7240;DHT22;3661;53.288;10.458;2022-11-09T16:55:39;12.90;99.90
7240;DHT22;3661;53.288;10.458;2022-11-09T16:58:13;12.80;99.90